sensor_id;sensor_type;location;lat;lon;timestamp;temperature;humidity
810;DHT22;387;48.772;9.186;2022-09-03T00:00:55;18.10;68.60
810;DHT22;387;48.772;9.186;2022-09-03T00:09:02;18.20;68.30
810;DHT22;387;48.772;9.186;2022-09-03T00:11:50;18.20;68.30
810;DHT22;387;48.772;9.186;2022-09-03T00:14:27;18.20;68.30
810;DHT22;387;48.772;9.186;2022-09-03T00:17:01;18.20;68.60
810;DHT22;387;48.772;9.186;2022-09-03T00:19:33;18.10;68.50
810;DHT22;387;48.772;9.186;2022-09-03T00:22:04;18.00;69.10
810;DHT22;387;48.772;9.186;2022-09-03T00:24:35;17.90;69.40
810;DHT22;387;48.772;9.186;2022-09-03T00:27:06;17.90;69.40
810;DHT22;387;48.772;9.186;2022-09-03T00:32:10;17.90;69.70
810;DHT22;387;48.772;9.186;2022-09-03T00:34:40;18.00;69.40
810;DHT22;387;48.772;9.186;2022-09-03T00:37:09;18.00;69.10
810;DHT22;387;48.772;9.186;2022-09-03T00:39:36;18.10;68.90
810;DHT22;387;48.772;9.186;2022-09-03T00:42:37;18.10;68.80
810;DHT22;387;48.772;9.186;2022-09-03T00:51:02;18.30;67.90
810;DHT22;387;48.772;9.186;2022-09-03T01:12:46;18.40;67.20
810;DHT22;387;48.772;9.186;2022-09-03T01:17:57;18.30;68.90
810;DHT22;387;48.772;9.186;2022-09-03T01:20:48;18.40;68.50
810;DHT22;387;48.772;9.186;2022-09-03T01:38:11;18.60;67.20
810;DHT22;387;48.772;9.186;2022-09-03T01:51:07;18.50;67.90
810;DHT22;387;48.772;9.186;2022-09-03T01:59:07;18.70;68.30
810;DHT22;387;48.772;9.186;2022-09-03T02:02:03;18.70;67.70
810;DHT22;387;48.772;9.186;2022-09-03T02:04:30;18.70;67.70
810;DHT22;387;48.772;9.186;2022-09-03T02:06:58;18.70;67.70
810;DHT22;387;48.772;9.186;2022-09-03T02:09:25;18.70;67.70
810;DHT22;387;48.772;9.186;2022-09-03T02:12:37;18.60;68.00
810;DHT22;387;48.772;9.186;2022-09-03T02:14:58;18.70;68.30
810;DHT22;387;48.772;9.186;2022-09-03T02:17:24;18.60;67.90
810;DHT22;387;48.772;9.186;2022-09-03T02:19:50;18.70;67.50
810;DHT22;387;48.772;9.186;2022-09-03T02:22:16;18.70;67.70
810;DHT22;387;48.772;9.186;2022-09-03T02:24:41;18.70;67.50
810;DHT22;387;48.772;9.186;2022-09-03T02:27:08;18.70;67.70
810;DHT22;387;48.772;9.186;2022-09-03T02:29:33;18.60;68.00
810;DHT22;387;48.772;9.186;2022-09-03T02:31:59;18.60;67.90
810;DHT22;387;48.772;9.186;2022-09-03T02:34:25;18.50;67.90
810;DHT22;387;48.772;9.186;2022-09-03T02:36:50;18.40;68.30
810;DHT22;387;48.772;9.186;2022-09-03T02:39:16;18.40;68.60
810;DHT22;387;48.772;9.186;2022-09-03T02:41:42;18.40;68.50
810;DHT22;387;48.772;9.186;2022-09-03T02:46:39;18.30;68.60
810;DHT22;387;48.772;9.186;2022-09-03T02:49:07;18.30;68.80
810;DHT22;387;48.772;9.186;2022-09-03T02:51:38;18.40;68.90
810;DHT22;387;48.772;9.186;2022-09-03T02:54:04;18.40;68.90
810;DHT22;387;48.772;9.186;2022-09-03T02:56:30;18.30;69.40
810;DHT22;387;48.772;9.186;2022-09-03T02:58:55;18.30;69.20
810;DHT22;387;48.772;9.186;2022-09-03T03:01:22;18.30;69.20
810;DHT22;387;48.772;9.186;2022-09-03T03:03:47;18.20;70.20
810;DHT22;387;48.772;9.186;2022-09-03T03:06:13;18.10;70.50
810;DHT22;387;48.772;9.186;2022-09-03T03:08:39;18.10;71.00
810;DHT22;387;48.772;9.186;2022-09-03T03:11:05;18.00;70.50
810;DHT22;387;48.772;9.186;2022-09-03T03:13:32;17.90;70.10
810;DHT22;387;48.772;9.186;2022-09-03T03:16:00;17.90;69.80
810;DHT22;387;48.772;9.186;2022-09-03T03:18:26;18.00;69.40
810;DHT22;387;48.772;9.186;2022-09-03T03:20:52;18.00;69.50
810;DHT22;387;48.772;9.186;2022-09-03T03:23:19;18.00;69.50
810;DHT22;387;48.772;9.186;2022-09-03T03:25:45;18.00;69.90
810;DHT22;387;48.772;9.186;2022-09-03T03:28:11;18.00;69.90
810;DHT22;387;48.772;9.186;2022-09-03T03:30:38;18.00;69.80
810;DHT22;387;48.772;9.186;2022-09-03T03:33:05;18.10;69.90
810;DHT22;387;48.772;9.186;2022-09-03T03:35:30;18.10;69.70
810;DHT22;387;48.772;9.186;2022-09-03T03:37:59;18.10;69.70
810;DHT22;387;48.772;9.186;2022-09-03T03:40:25;18.00;69.50
810;DHT22;387;48.772;9.186;2022-09-03T03:42:50;17.90;69.80
810;DHT22;387;48.772;9.186;2022-09-03T03:45:16;17.90;69.80
810;DHT22;387;48.772;9.186;2022-09-03T03:47:42;17.80;70.20
810;DHT22;387;48.772;9.186;2022-09-03T03:50:07;17.70;71.30
810;DHT22;387;48.772;9.186;2022-09-03T03:52:33;17.70;71.70
810;DHT22;387;48.772;9.186;2022-09-03T03:54:59;17.70;72.00
810;DHT22;387;48.772;9.186;2022-09-03T03:57:24;17.80;72.00
810;DHT22;387;48.772;9.186;2022-09-03T03:59:50;17.90;71.70
810;DHT22;387;48.772;9.186;2022-09-03T04:02:16;17.90;71.40
810;DHT22;387;48.772;9.186;2022-09-03T04:04:42;17.80;71.40
810;DHT22;387;48.772;9.186;2022-09-03T04:07:08;17.70;71.70
810;DHT22;387;48.772;9.186;2022-09-03T04:09:34;17.80;71.60
810;DHT22;387;48.772;9.186;2022-09-03T04:12:00;17.80;71.60
810;DHT22;387;48.772;9.186;2022-09-03T04:14:26;17.70;71.80
810;DHT22;387;48.772;9.186;2022-09-03T04:16:53;17.70;71.80
810;DHT22;387;48.772;9.186;2022-09-03T04:19:19;17.70;71.80
810;DHT22;387;48.772;9.186;2022-09-03T04:21:45;17.70;71.80
810;DHT22;387;48.772;9.186;2022-09-03T04:24:11;17.70;72.10
810;DHT22;387;48.772;9.186;2022-09-03T04:26:37;17.60;72.40
810;DHT22;387;48.772;9.186;2022-09-03T04:29:05;17.60;72.90
810;DHT22;387;48.772;9.186;2022-09-03T04:31:31;17.50;72.90
810;DHT22;387;48.772;9.186;2022-09-03T04:33:57;17.40;73.00
810;DHT22;387;48.772;9.186;2022-09-03T04:36:25;17.40;73.20
810;DHT22;387;48.772;9.186;2022-09-03T04:38:53;17.30;73.50
810;DHT22;387;48.772;9.186;2022-09-03T04:41:24;17.20;73.60
810;DHT22;387;48.772;9.186;2022-09-03T04:43:50;17.20;73.70
810;DHT22;387;48.772;9.186;2022-09-03T04:46:17;17.30;73.70
810;DHT22;387;48.772;9.186;2022-09-03T04:48:46;17.30;73.70
810;DHT22;387;48.772;9.186;2022-09-03T04:51:14;17.30;73.90
810;DHT22;387;48.772;9.186;2022-09-03T04:53:41;17.30;74.00
810;DHT22;387;48.772;9.186;2022-09-03T04:56:16;17.20;74.30
810;DHT22;387;48.772;9.186;2022-09-03T04:58:43;17.30;74.60
810;DHT22;387;48.772;9.186;2022-09-03T05:01:15;17.40;74.60
810;DHT22;387;48.772;9.186;2022-09-03T05:03:42;17.50;74.20
810;DHT22;387;48.772;9.186;2022-09-03T05:06:08;17.60;73.90
810;DHT22;387;48.772;9.186;2022-09-03T05:08:34;17.50;74.00
810;DHT22;387;48.772;9.186;2022-09-03T05:11:02;17.50;73.70
810;DHT22;387;48.772;9.186;2022-09-03T05:13:28;17.60;73.70
810;DHT22;387;48.772;9.186;2022-09-03T05:16:01;17.60;73.70
810;DHT22;387;48.772;9.186;2022-09-03T05:18:27;17.60;74.00
810;DHT22;387;48.772;9.186;2022-09-03T05:21:01;17.70;73.60
810;DHT22;387;48.772;9.186;2022-09-03T05:23:27;17.60;73.90
810;DHT22;387;48.772;9.186;2022-09-03T05:25:55;17.60;74.00
810;DHT22;387;48.772;9.186;2022-09-03T05:28:23;17.70;74.00
810;DHT22;387;48.772;9.186;2022-09-03T05:31:06;17.60;74.20
810;DHT22;387;48.772;9.186;2022-09-03T05:33:40;17.70;74.00
810;DHT22;387;48.772;9.186;2022-09-03T05:36:12;17.80;73.50
810;DHT22;387;48.772;9.186;2022-09-03T05:38:38;17.90;73.20
810;DHT22;387;48.772;9.186;2022-09-03T05:41:06;18.00;72.90
810;DHT22;387;48.772;9.186;2022-09-03T05:43:33;18.00;72.70
810;DHT22;387;48.772;9.186;2022-09-03T05:46:19;18.00;73.20
810;DHT22;387;48.772;9.186;2022-09-03T05:48:45;18.10;73.20
810;DHT22;387;48.772;9.186;2022-09-03T05:51:17;18.10;73.30
810;DHT22;387;48.772;9.186;2022-09-03T05:53:44;18.10;73.30
810;DHT22;387;48.772;9.186;2022-09-03T05:56:16;18.20;73.00
810;DHT22;387;48.772;9.186;2022-09-03T05:58:44;18.10;73.20
810;DHT22;387;48.772;9.186;2022-09-03T06:03:35;18.30;73.00
810;DHT22;387;48.772;9.186;2022-09-03T06:06:01;18.30;72.90
810;DHT22;387;48.772;9.186;2022-09-03T06:08:29;18.30;72.90
810;DHT22;387;48.772;9.186;2022-09-03T06:10:59;18.30;72.90
810;DHT22;387;48.772;9.186;2022-09-03T06:13:24;18.30;73.00
810;DHT22;387;48.772;9.186;2022-09-03T06:15:58;18.40;72.60
810;DHT22;387;48.772;9.186;2022-09-03T06:18:26;18.30;73.00
810;DHT22;387;48.772;9.186;2022-09-03T06:20:59;18.40;72.70
810;DHT22;387;48.772;9.186;2022-09-03T06:23:26;18.50;72.40
810;DHT22;387;48.772;9.186;2022-09-03T06:26:07;18.60;72.30
810;DHT22;387;48.772;9.186;2022-09-03T06:28:34;18.80;72.30
810;DHT22;387;48.772;9.186;2022-09-03T06:31:01;18.80;72.30
810;DHT22;387;48.772;9.186;2022-09-03T06:33:28;19.00;72.10
810;DHT22;387;48.772;9.186;2022-09-03T06:35:57;19.00;72.00
810;DHT22;387;48.772;9.186;2022-09-03T06:38:25;19.00;72.00
810;DHT22;387;48.772;9.186;2022-09-03T06:40:55;19.00;72.00
810;DHT22;387;48.772;9.186;2022-09-03T06:43:22;19.20;72.00
810;DHT22;387;48.772;9.186;2022-09-03T06:46:02;19.30;72.10
810;DHT22;387;48.772;9.186;2022-09-03T06:48:30;19.30;72.00
810;DHT22;387;48.772;9.186;2022-09-03T06:51:00;19.50;71.70
810;DHT22;387;48.772;9.186;2022-09-03T06:53:28;19.50;71.70
810;DHT22;387;48.772;9.186;2022-09-03T06:55:55;19.60;71.40
810;DHT22;387;48.772;9.186;2022-09-03T06:58:22;19.70;71.10
810;DHT22;387;48.772;9.186;2022-09-03T07:00:49;19.70;71.00
810;DHT22;387;48.772;9.186;2022-09-03T07:03:17;19.60;71.60
810;DHT22;387;48.772;9.186;2022-09-03T07:05:43;19.50;72.00
810;DHT22;387;48.772;9.186;2022-09-03T07:08:09;19.40;72.60
810;DHT22;387;48.772;9.186;2022-09-03T07:10:36;19.50;72.70
810;DHT22;387;48.772;9.186;2022-09-03T07:13:02;19.70;73.00
810;DHT22;387;48.772;9.186;2022-09-03T07:15:28;19.60;73.20
810;DHT22;387;48.772;9.186;2022-09-03T07:17:53;19.80;73.20
810;DHT22;387;48.772;9.186;2022-09-03T07:20:19;19.80;73.30
810;DHT22;387;48.772;9.186;2022-09-03T07:22:45;19.90;73.20
810;DHT22;387;48.772;9.186;2022-09-03T07:25:10;20.00;72.90
810;DHT22;387;48.772;9.186;2022-09-03T07:27:36;20.20;72.70
810;DHT22;387;48.772;9.186;2022-09-03T07:30:02;20.30;72.30
810;DHT22;387;48.772;9.186;2022-09-03T07:32:28;20.20;72.60
810;DHT22;387;48.772;9.186;2022-09-03T07:34:53;20.20;72.40
810;DHT22;387;48.772;9.186;2022-09-03T07:37:19;20.20;72.70
810;DHT22;387;48.772;9.186;2022-09-03T07:39:44;20.30;72.70
810;DHT22;387;48.772;9.186;2022-09-03T07:42:11;20.30;72.70
810;DHT22;387;48.772;9.186;2022-09-03T07:44:36;20.50;72.60
810;DHT22;387;48.772;9.186;2022-09-03T07:47:02;20.80;71.80
810;DHT22;387;48.772;9.186;2022-09-03T07:49:28;20.90;71.40
810;DHT22;387;48.772;9.186;2022-09-03T07:51:53;21.10;70.70
810;DHT22;387;48.772;9.186;2022-09-03T07:54:19;21.20;70.40
810;DHT22;387;48.772;9.186;2022-09-03T07:56:46;21.30;70.40
810;DHT22;387;48.772;9.186;2022-09-03T07:59:11;21.50;70.20
810;DHT22;387;48.772;9.186;2022-09-03T08:01:37;21.40;70.20
810;DHT22;387;48.772;9.186;2022-09-03T08:04:03;21.50;70.20
810;DHT22;387;48.772;9.186;2022-09-03T08:06:32;21.40;70.20
810;DHT22;387;48.772;9.186;2022-09-03T08:09:04;21.20;71.00
810;DHT22;387;48.772;9.186;2022-09-03T08:11:30;21.00;72.10
810;DHT22;387;48.772;9.186;2022-09-03T08:14:01;21.30;71.60
810;DHT22;387;48.772;9.186;2022-09-03T08:16:50;21.40;71.30
810;DHT22;387;48.772;9.186;2022-09-03T08:19:17;21.30;71.10
810;DHT22;387;48.772;9.186;2022-09-03T08:21:43;21.10;71.70
810;DHT22;387;48.772;9.186;2022-09-03T08:24:10;21.30;71.80
810;DHT22;387;48.772;9.186;2022-09-03T08:26:39;21.60;70.70
810;DHT22;387;48.772;9.186;2022-09-03T08:29:06;21.90;70.20
810;DHT22;387;48.772;9.186;2022-09-03T08:31:32;22.10;69.50
810;DHT22;387;48.772;9.186;2022-09-03T08:34:00;22.20;68.90
810;DHT22;387;48.772;9.186;2022-09-03T08:36:33;22.00;69.70
810;DHT22;387;48.772;9.186;2022-09-03T08:39:00;22.30;69.40
810;DHT22;387;48.772;9.186;2022-09-03T08:47:40;22.10;68.20
810;DHT22;387;48.772;9.186;2022-09-03T08:58:03;21.50;70.50
810;DHT22;387;48.772;9.186;2022-09-03T09:00:50;21.50;70.50
810;DHT22;387;48.772;9.186;2022-09-03T09:14:17;21.20;71.30
810;DHT22;387;48.772;9.186;2022-09-03T09:16:56;21.30;71.10
810;DHT22;387;48.772;9.186;2022-09-03T09:24:47;21.40;70.50
810;DHT22;387;48.772;9.186;2022-09-03T09:27:15;21.50;70.20
810;DHT22;387;48.772;9.186;2022-09-03T09:29:43;21.60;70.10
810;DHT22;387;48.772;9.186;2022-09-03T09:32:12;21.70;70.50
810;DHT22;387;48.772;9.186;2022-09-03T09:34:39;21.30;71.40
810;DHT22;387;48.772;9.186;2022-09-03T09:37:09;21.30;71.70
810;DHT22;387;48.772;9.186;2022-09-03T09:39:36;21.40;71.40
810;DHT22;387;48.772;9.186;2022-09-03T09:42:08;21.50;71.00
810;DHT22;387;48.772;9.186;2022-09-03T09:44:36;21.70;70.20
810;DHT22;387;48.772;9.186;2022-09-03T09:47:05;21.50;70.50
810;DHT22;387;48.772;9.186;2022-09-03T09:49:50;21.40;70.50
810;DHT22;387;48.772;9.186;2022-09-03T09:52:16;21.50;70.70
810;DHT22;387;48.772;9.186;2022-09-03T09:54:44;22.00;69.90
810;DHT22;387;48.772;9.186;2022-09-03T09:57:21;22.10;68.20
810;DHT22;387;48.772;9.186;2022-09-03T09:59:47;21.80;69.40
810;DHT22;387;48.772;9.186;2022-09-03T10:02:25;21.90;69.20
810;DHT22;387;48.772;9.186;2022-09-03T10:05:17;22.00;68.80
810;DHT22;387;48.772;9.186;2022-09-03T10:07:57;22.20;68.00
810;DHT22;387;48.772;9.186;2022-09-03T10:10:23;22.30;67.60
810;DHT22;387;48.772;9.186;2022-09-03T10:13:04;22.20;67.90
810;DHT22;387;48.772;9.186;2022-09-03T10:15:46;22.30;67.20
810;DHT22;387;48.772;9.186;2022-09-03T10:21:19;21.70;69.40
810;DHT22;387;48.772;9.186;2022-09-03T10:23:50;21.90;68.80
810;DHT22;387;48.772;9.186;2022-09-03T10:26:21;21.60;69.20
810;DHT22;387;48.772;9.186;2022-09-03T10:29:04;21.50;69.80
810;DHT22;387;48.772;9.186;2022-09-03T10:34:17;22.00;69.10
810;DHT22;387;48.772;9.186;2022-09-03T10:36:54;22.10;68.30
810;DHT22;387;48.772;9.186;2022-09-03T10:39:40;22.10;68.20
810;DHT22;387;48.772;9.186;2022-09-03T10:51:46;22.60;66.30
810;DHT22;387;48.772;9.186;2022-09-03T10:56:52;22.80;65.30
810;DHT22;387;48.772;9.186;2022-09-03T11:05:01;22.90;65.40
810;DHT22;387;48.772;9.186;2022-09-03T11:07:35;23.20;64.20
810;DHT22;387;48.772;9.186;2022-09-03T11:10:21;23.30;63.90
810;DHT22;387;48.772;9.186;2022-09-03T11:16:01;23.90;62.00
810;DHT22;387;48.772;9.186;2022-09-03T11:18:43;24.10;62.00
810;DHT22;387;48.772;9.186;2022-09-03T11:21:13;24.00;61.50
810;DHT22;387;48.772;9.186;2022-09-03T11:23:44;23.80;62.50
810;DHT22;387;48.772;9.186;2022-09-03T11:26:14;23.90;62.00
810;DHT22;387;48.772;9.186;2022-09-03T11:31:24;23.80;62.50
810;DHT22;387;48.772;9.186;2022-09-03T11:33:59;23.80;62.30
810;DHT22;387;48.772;9.186;2022-09-03T11:36:37;23.50;63.10
810;DHT22;387;48.772;9.186;2022-09-03T11:39:22;23.20;64.20
810;DHT22;387;48.772;9.186;2022-09-03T11:42:03;23.40;63.90
810;DHT22;387;48.772;9.186;2022-09-03T11:44:38;23.50;63.70
810;DHT22;387;48.772;9.186;2022-09-03T11:47:40;23.50;63.50
810;DHT22;387;48.772;9.186;2022-09-03T11:50:16;23.40;63.20
810;DHT22;387;48.772;9.186;2022-09-03T11:52:45;23.20;64.40
810;DHT22;387;48.772;9.186;2022-09-03T11:55:11;23.10;64.50
810;DHT22;387;48.772;9.186;2022-09-03T11:57:41;23.10;64.70
810;DHT22;387;48.772;9.186;2022-09-03T12:00:13;22.90;65.30
810;DHT22;387;48.772;9.186;2022-09-03T12:02:44;22.90;65.40
810;DHT22;387;48.772;9.186;2022-09-03T12:05:41;23.00;65.60
810;DHT22;387;48.772;9.186;2022-09-03T12:11:48;23.20;65.10
810;DHT22;387;48.772;9.186;2022-09-03T12:14:39;23.30;65.40
810;DHT22;387;48.772;9.186;2022-09-03T12:19:53;23.20;66.00
810;DHT22;387;48.772;9.186;2022-09-03T12:22:23;23.10;66.60
810;DHT22;387;48.772;9.186;2022-09-03T12:24:49;23.10;67.70
810;DHT22;387;48.772;9.186;2022-09-03T12:27:25;23.00;68.30
810;DHT22;387;48.772;9.186;2022-09-03T12:29:57;22.90;70.10
810;DHT22;387;48.772;9.186;2022-09-03T12:32:32;22.80;71.30
810;DHT22;387;48.772;9.186;2022-09-03T12:35:11;22.40;72.60
810;DHT22;387;48.772;9.186;2022-09-03T12:37:37;21.70;75.80
810;DHT22;387;48.772;9.186;2022-09-03T12:40:04;21.20;78.10
810;DHT22;387;48.772;9.186;2022-09-03T12:42:30;20.60;81.40
810;DHT22;387;48.772;9.186;2022-09-03T12:45:07;20.20;83.60
810;DHT22;387;48.772;9.186;2022-09-03T12:47:38;20.00;84.90
810;DHT22;387;48.772;9.186;2022-09-03T12:50:11;19.70;86.80
810;DHT22;387;48.772;9.186;2022-09-03T12:52:52;19.30;86.80
810;DHT22;387;48.772;9.186;2022-09-03T12:58:20;18.90;88.90
810;DHT22;387;48.772;9.186;2022-09-03T13:06:18;18.10;92.00
810;DHT22;387;48.772;9.186;2022-09-03T13:08:52;17.90;92.80
810;DHT22;387;48.772;9.186;2022-09-03T13:11:21;17.80;93.30
810;DHT22;387;48.772;9.186;2022-09-03T13:13:53;17.70;93.40
810;DHT22;387;48.772;9.186;2022-09-03T13:32:37;18.10;95.00
810;DHT22;387;48.772;9.186;2022-09-03T13:35:36;18.30;94.90
810;DHT22;387;48.772;9.186;2022-09-03T13:46:06;19.60;88.40
810;DHT22;387;48.772;9.186;2022-09-03T13:48:43;19.60;87.70
810;DHT22;387;48.772;9.186;2022-09-03T13:51:31;19.80;87.30
810;DHT22;387;48.772;9.186;2022-09-03T13:54:10;20.10;86.30
810;DHT22;387;48.772;9.186;2022-09-03T13:56:53;20.40;86.00
810;DHT22;387;48.772;9.186;2022-09-03T13:59:46;20.60;83.80
810;DHT22;387;48.772;9.186;2022-09-03T14:02:49;20.80;84.10
810;DHT22;387;48.772;9.186;2022-09-03T14:10:53;21.40;83.10
810;DHT22;387;48.772;9.186;2022-09-03T14:13:46;21.60;82.20
810;DHT22;387;48.772;9.186;2022-09-03T14:19:00;22.40;78.40
810;DHT22;387;48.772;9.186;2022-09-03T14:21:29;22.40;79.00
810;DHT22;387;48.772;9.186;2022-09-03T14:24:09;22.60;78.60
810;DHT22;387;48.772;9.186;2022-09-03T14:26:37;22.80;76.80
810;DHT22;387;48.772;9.186;2022-09-03T14:50:25;22.10;77.00
810;DHT22;387;48.772;9.186;2022-09-03T15:01:11;23.70;71.70
810;DHT22;387;48.772;9.186;2022-09-03T15:03:45;24.00;69.40
810;DHT22;387;48.772;9.186;2022-09-03T15:06:22;24.30;68.80
810;DHT22;387;48.772;9.186;2022-09-03T15:12:05;24.30;67.90
810;DHT22;387;48.772;9.186;2022-09-03T15:14:55;24.70;67.20
810;DHT22;387;48.772;9.186;2022-09-03T15:34:11;24.30;67.20
810;DHT22;387;48.772;9.186;2022-09-03T15:36:45;24.00;68.50
810;DHT22;387;48.772;9.186;2022-09-03T15:39:23;23.70;70.40
810;DHT22;387;48.772;9.186;2022-09-03T15:41:58;23.80;69.90
810;DHT22;387;48.772;9.186;2022-09-03T15:44:26;23.80;70.10
810;DHT22;387;48.772;9.186;2022-09-03T15:47:00;23.40;71.00
810;DHT22;387;48.772;9.186;2022-09-03T15:49:57;23.60;70.80
810;DHT22;387;48.772;9.186;2022-09-03T15:53:14;23.60;71.30
810;DHT22;387;48.772;9.186;2022-09-03T15:55:40;24.00;70.50
810;DHT22;387;48.772;9.186;2022-09-03T15:58:27;23.90;70.10
810;DHT22;387;48.772;9.186;2022-09-03T16:01:05;22.80;74.20
810;DHT22;387;48.772;9.186;2022-09-03T16:03:36;21.70;77.70
810;DHT22;387;48.772;9.186;2022-09-03T16:09:17;21.60;80.00
810;DHT22;387;48.772;9.186;2022-09-03T16:11:55;21.80;79.00
810;DHT22;387;48.772;9.186;2022-09-03T16:14:57;21.80;79.30
810;DHT22;387;48.772;9.186;2022-09-03T16:20:13;21.80;79.60
810;DHT22;387;48.772;9.186;2022-09-03T16:22:56;21.90;79.20
810;DHT22;387;48.772;9.186;2022-09-03T16:25:29;22.00;78.90
810;DHT22;387;48.772;9.186;2022-09-03T16:28:03;22.00;79.20
810;DHT22;387;48.772;9.186;2022-09-03T16:41:40;22.10;79.30
810;DHT22;387;48.772;9.186;2022-09-03T16:47:28;22.10;78.90
810;DHT22;387;48.772;9.186;2022-09-03T16:50:24;22.10;78.60
810;DHT22;387;48.772;9.186;2022-09-03T17:04:38;22.30;77.70
810;DHT22;387;48.772;9.186;2022-09-03T17:08:09;22.40;77.80
810;DHT22;387;48.772;9.186;2022-09-03T17:10:25;22.40;77.60
810;DHT22;387;48.772;9.186;2022-09-03T17:13:19;22.50;77.80
810;DHT22;387;48.772;9.186;2022-09-03T17:15:53;22.50;78.10
810;DHT22;387;48.772;9.186;2022-09-03T17:21:22;22.60;77.80
810;DHT22;387;48.772;9.186;2022-09-03T17:34:37;22.30;78.70
810;DHT22;387;48.772;9.186;2022-09-03T17:37:20;22.30;78.90
810;DHT22;387;48.772;9.186;2022-09-03T17:40:15;22.30;78.60
810;DHT22;387;48.772;9.186;2022-09-03T17:45:48;22.10;80.30
810;DHT22;387;48.772;9.186;2022-09-03T17:53:37;21.90;80.50
810;DHT22;387;48.772;9.186;2022-09-03T17:56:27;21.70;80.90
810;DHT22;387;48.772;9.186;2022-09-03T17:59:04;21.50;81.90
810;DHT22;387;48.772;9.186;2022-09-03T18:01:36;21.30;82.70
810;DHT22;387;48.772;9.186;2022-09-03T18:07:29;20.90;85.00
810;DHT22;387;48.772;9.186;2022-09-03T18:15:36;20.50;86.60
810;DHT22;387;48.772;9.186;2022-09-03T18:18:15;20.30;87.10
810;DHT22;387;48.772;9.186;2022-09-03T18:20:51;20.30;87.30
810;DHT22;387;48.772;9.186;2022-09-03T18:24:03;20.10;87.80
810;DHT22;387;48.772;9.186;2022-09-03T18:26:58;19.90;88.40
810;DHT22;387;48.772;9.186;2022-09-03T18:32:45;19.80;89.30
810;DHT22;387;48.772;9.186;2022-09-03T18:35:30;19.80;89.50
810;DHT22;387;48.772;9.186;2022-09-03T18:38:23;19.70;89.70
810;DHT22;387;48.772;9.186;2022-09-03T18:51:02;19.50;90.40
810;DHT22;387;48.772;9.186;2022-09-03T18:54:06;19.50;90.60
810;DHT22;387;48.772;9.186;2022-09-03T18:56:53;19.50;90.80
810;DHT22;387;48.772;9.186;2022-09-03T19:05:52;19.30;90.90
810;DHT22;387;48.772;9.186;2022-09-03T19:08:45;19.20;90.90
810;DHT22;387;48.772;9.186;2022-09-03T19:14:40;19.20;91.10
810;DHT22;387;48.772;9.186;2022-09-03T19:17:50;19.20;91.20
810;DHT22;387;48.772;9.186;2022-09-03T19:20:40;19.20;91.20
810;DHT22;387;48.772;9.186;2022-09-03T19:23:27;19.20;91.30
810;DHT22;387;48.772;9.186;2022-09-03T19:26:23;19.20;91.40
810;DHT22;387;48.772;9.186;2022-09-03T19:29:28;19.20;91.50
810;DHT22;387;48.772;9.186;2022-09-03T19:32:18;19.20;91.60
810;DHT22;387;48.772;9.186;2022-09-03T19:35:18;19.20;91.70
810;DHT22;387;48.772;9.186;2022-09-03T19:41:19;19.10;91.90
810;DHT22;387;48.772;9.186;2022-09-03T19:44:28;19.10;91.80
810;DHT22;387;48.772;9.186;2022-09-03T19:47:29;19.00;91.90
810;DHT22;387;48.772;9.186;2022-09-03T19:50:18;19.00;92.10
810;DHT22;387;48.772;9.186;2022-09-03T19:53:11;18.90;92.20
810;DHT22;387;48.772;9.186;2022-09-03T19:56:02;18.90;92.30
810;DHT22;387;48.772;9.186;2022-09-03T19:58:54;18.80;92.40
810;DHT22;387;48.772;9.186;2022-09-03T20:01:39;18.70;92.60
810;DHT22;387;48.772;9.186;2022-09-03T20:04:43;18.70;92.80
810;DHT22;387;48.772;9.186;2022-09-03T20:07:29;18.60;93.00
810;DHT22;387;48.772;9.186;2022-09-03T20:10:16;18.60;92.90
810;DHT22;387;48.772;9.186;2022-09-03T20:13:08;18.60;93.00
810;DHT22;387;48.772;9.186;2022-09-03T20:16:06;18.60;93.20
810;DHT22;387;48.772;9.186;2022-09-03T20:22:10;18.70;92.80
810;DHT22;387;48.772;9.186;2022-09-03T20:27:36;18.70;92.60
810;DHT22;387;48.772;9.186;2022-09-03T20:30:17;18.70;92.50
810;DHT22;387;48.772;9.186;2022-09-03T20:35:34;18.70;92.80
810;DHT22;387;48.772;9.186;2022-09-03T20:55:15;18.60;92.90
810;DHT22;387;48.772;9.186;2022-09-03T21:00:16;18.60;93.10
810;DHT22;387;48.772;9.186;2022-09-03T21:03:20;18.60;93.10
810;DHT22;387;48.772;9.186;2022-09-03T21:06:15;18.60;93.10
810;DHT22;387;48.772;9.186;2022-09-03T21:12:23;18.60;92.90
810;DHT22;387;48.772;9.186;2022-09-03T21:17:44;18.70;92.90
810;DHT22;387;48.772;9.186;2022-09-03T21:20:19;18.70;92.70
810;DHT22;387;48.772;9.186;2022-09-03T21:25:25;18.80;92.70
810;DHT22;387;48.772;9.186;2022-09-03T21:28:16;18.70;92.70
810;DHT22;387;48.772;9.186;2022-09-03T21:30:47;18.70;93.00
810;DHT22;387;48.772;9.186;2022-09-03T21:33:19;18.80;92.90
810;DHT22;387;48.772;9.186;2022-09-03T21:35:53;18.80;92.80
810;DHT22;387;48.772;9.186;2022-09-03T21:38:27;18.90;92.80
810;DHT22;387;48.772;9.186;2022-09-03T21:43:33;18.90;93.00
810;DHT22;387;48.772;9.186;2022-09-03T21:46:08;19.00;92.80
810;DHT22;387;48.772;9.186;2022-09-03T21:51:30;18.90;92.50
810;DHT22;387;48.772;9.186;2022-09-03T21:54:47;18.90;91.90
810;DHT22;387;48.772;9.186;2022-09-03T22:00:14;18.40;93.90
810;DHT22;387;48.772;9.186;2022-09-03T22:02:44;18.20;94.80
810;DHT22;387;48.772;9.186;2022-09-03T22:05:12;18.10;95.40
810;DHT22;387;48.772;9.186;2022-09-03T22:10:30;18.00;96.40
810;DHT22;387;48.772;9.186;2022-09-03T22:13:18;17.90;96.60
810;DHT22;387;48.772;9.186;2022-09-03T22:15:48;17.90;97.00
810;DHT22;387;48.772;9.186;2022-09-03T22:21:11;17.90;97.30
810;DHT22;387;48.772;9.186;2022-09-03T22:23:51;17.90;97.40
810;DHT22;387;48.772;9.186;2022-09-03T22:26:30;17.80;97.50
810;DHT22;387;48.772;9.186;2022-09-03T22:29:06;17.70;97.50
810;DHT22;387;48.772;9.186;2022-09-03T22:37:46;17.80;97.70
810;DHT22;387;48.772;9.186;2022-09-03T22:46:14;18.00;97.70
810;DHT22;387;48.772;9.186;2022-09-03T22:51:06;18.00;97.50
810;DHT22;387;48.772;9.186;2022-09-03T22:53:58;18.00;97.40
810;DHT22;387;48.772;9.186;2022-09-03T22:56:29;18.00;97.50
810;DHT22;387;48.772;9.186;2022-09-03T22:59:06;18.00;97.30
810;DHT22;387;48.772;9.186;2022-09-03T23:01:46;17.90;97.40
810;DHT22;387;48.772;9.186;2022-09-03T23:04:27;17.90;97.50
810;DHT22;387;48.772;9.186;2022-09-03T23:07:21;17.90;97.60
810;DHT22;387;48.772;9.186;2022-09-03T23:09:59;18.00;97.60
810;DHT22;387;48.772;9.186;2022-09-03T23:12:40;17.90;97.50
810;DHT22;387;48.772;9.186;2022-09-03T23:15:06;17.90;97.50
810;DHT22;387;48.772;9.186;2022-09-03T23:23:35;17.80;97.70
810;DHT22;387;48.772;9.186;2022-09-03T23:26:15;17.80;97.70
810;DHT22;387;48.772;9.186;2022-09-03T23:28:54;17.80;97.60
810;DHT22;387;48.772;9.186;2022-09-03T23:31:24;17.70;97.50
810;DHT22;387;48.772;9.186;2022-09-03T23:33:50;17.70;97.40
810;DHT22;387;48.772;9.186;2022-09-03T23:44:38;17.60;97.70
810;DHT22;387;48.772;9.186;2022-09-03T23:50:02;17.40;97.50
